createdAt,value
2023-12-11T00:01:44.861Z,99561.66
2023-12-11T00:06:46.396Z,99548.88
2023-12-11T00:11:47.889Z,99548.00
2023-12-11T00:16:49.418Z,99537.91
2023-12-11T00:21:50.961Z,99542.28
2023-12-11T00:26:52.526Z,99538.00
2023-12-11T00:31:54.052Z,99537.25
2023-12-11T00:36:55.587Z,99537.41
2023-12-11T00:41:57.589Z,99532.47
2023-12-11T00:46:59.106Z,99524.84
2023-12-11T00:52:00.613Z,99534.25
2023-12-11T00:57:02.132Z,99527.41
2023-12-11T01:02:03.840Z,99528.06
2023-12-11T01:07:05.444Z,99532.19
2023-12-11T01:12:07.241Z,99529.00
2023-12-11T01:17:36.660Z,99526.44
2023-12-11T01:22:30.214Z,99509.41
2023-12-11T01:27:32.307Z,99529.06
2023-12-11T01:32:34.221Z,99529.00
2023-12-11T01:37:35.919Z,99533.03
2023-12-11T01:42:37.455Z,99541.28
2023-12-11T01:47:39.440Z,99559.81
2023-12-11T01:52:41.083Z,99553.53
2023-12-11T01:57:42.655Z,99550.81
2023-12-11T02:02:44.608Z,99558.81
2023-12-11T02:07:46.137Z,99552.56
2023-12-11T02:12:47.682Z,99560.69
2023-12-11T02:17:49.250Z,99564.34
2023-12-11T02:22:51.510Z,99560.50
2023-12-11T02:27:53.012Z,99559.00
2023-12-11T02:32:54.538Z,99554.41
2023-12-11T02:37:56.112Z,99555.16
2023-12-11T02:42:57.682Z,99553.13
2023-12-11T02:47:59.293Z,99551.28
2023-12-11T02:53:03.108Z,99551.84
2023-12-11T02:58:05.104Z,99550.84
2023-12-11T03:03:09.275Z,99562.38
2023-12-11T03:08:10.866Z,99527.38
2023-12-11T03:13:12.436Z,99523.78
2023-12-11T03:18:14.027Z,99531.31
2023-12-11T03:23:15.563Z,99539.03
2023-12-11T03:28:17.174Z,99542.44
2023-12-11T03:33:18.755Z,99551.59
2023-12-11T03:38:20.280Z,99540.59
2023-12-11T03:43:21.809Z,99548.28
2023-12-11T03:48:23.455Z,99553.91
2023-12-11T03:53:25.018Z,99551.41
2023-12-11T03:58:26.541Z,99553.00
2023-12-11T04:03:28.100Z,99553.56
2023-12-11T04:08:29.838Z,99548.41
2023-12-11T04:13:31.348Z,99552.72
2023-12-11T04:18:34.006Z,99556.75
2023-12-11T04:23:35.611Z,99550.69
2023-12-11T04:28:37.093Z,99547.59
2023-12-11T04:33:38.926Z,99556.88
2023-12-11T04:38:40.847Z,99543.09
2023-12-11T04:43:42.326Z,99545.66
2023-12-11T04:48:44.002Z,99549.22
2023-12-11T04:53:45.538Z,99544.19
2023-12-11T04:58:47.032Z,99547.50
2023-12-11T05:03:48.530Z,99553.34
2023-12-11T05:08:50.105Z,99552.44
2023-12-11T05:13:51.624Z,99540.31
2023-12-11T05:18:53.243Z,99539.03
2023-12-11T05:23:56.388Z,99548.41
2023-12-11T05:28:57.896Z,99541.44
2023-12-11T05:33:59.661Z,99543.09
2023-12-11T05:39:01.261Z,99533.66
2023-12-11T05:44:02.773Z,99530.91
2023-12-11T05:49:04.367Z,99533.47
2023-12-11T05:54:05.941Z,99533.56
2023-12-11T05:59:07.423Z,99534.38
2023-12-11T06:04:08.991Z,99521.63
2023-12-11T06:09:10.520Z,99523.38
2023-12-11T06:14:12.056Z,99525.09
2023-12-11T06:19:13.711Z,99507.97
2023-12-11T06:24:15.284Z,99514.72
2023-12-11T06:29:16.968Z,99502.84
2023-12-11T06:34:18.527Z,99494.47
2023-12-11T06:39:20.008Z,99489.63
2023-12-11T06:44:21.890Z,99497.34
2023-12-11T06:49:23.576Z,99493.81
2023-12-11T06:54:25.187Z,99483.84
2023-12-11T06:59:26.672Z,99495.69
2023-12-11T07:04:28.273Z,99495.47
2023-12-11T07:09:29.904Z,99487.69
2023-12-11T07:14:33.868Z,99490.16
2023-12-11T07:19:35.456Z,99480.72
2023-12-11T07:24:37.038Z,99483.00
2023-12-11T07:29:38.594Z,99482.91
2023-12-11T07:34:40.237Z,99489.69
2023-12-11T07:39:41.875Z,99490.63
2023-12-11T07:44:43.454Z,99509.34
2023-12-11T07:49:45.322Z,99500.63
2023-12-11T07:54:47.001Z,99502.09
2023-12-11T07:59:48.558Z,99495.09
2023-12-11T08:04:50.114Z,99487.28
2023-12-11T08:09:51.737Z,99490.50
2023-12-11T08:14:53.343Z,99497.03
2023-12-11T08:19:56.259Z,99493.34
2023-12-11T08:24:57.865Z,99484.41
2023-12-11T08:29:59.394Z,99487.63
2023-12-11T08:35:00.991Z,99488.25
2023-12-11T08:40:03.522Z,99488.16
2023-12-11T08:45:05.787Z,99481.38
2023-12-11T08:50:09.215Z,99491.84
2023-12-11T08:55:11.327Z,99490.38
2023-12-11T09:00:13.661Z,99489.56
2023-12-11T09:05:15.754Z,99491.22
2023-12-11T09:10:17.428Z,99490.00
2023-12-11T09:15:19.005Z,99485.13
2023-12-11T09:20:20.595Z,99488.94
2023-12-11T09:25:22.338Z,99492.97
2023-12-11T09:30:24.213Z,99482.22
2023-12-11T09:35:26.068Z,99498.88
2023-12-11T09:40:27.687Z,99488.41
2023-12-11T09:45:29.978Z,99489.97
2023-12-11T09:50:31.912Z,99489.53
2023-12-11T09:55:33.463Z,99490.28
2023-12-11T10:00:36.787Z,99484.22
2023-12-11T10:05:38.509Z,99489.28
2023-12-11T10:10:40.404Z,99479.59
2023-12-11T10:15:42.003Z,99483.63
2023-12-11T10:20:44.167Z,99487.34
2023-12-11T10:25:47.961Z,99486.13
2023-12-11T10:30:55.533Z,99476.25
2023-12-11T10:36:26.590Z,99476.66
2023-12-11T10:41:28.121Z,99478.31
2023-12-11T10:46:30.493Z,99475.94
2023-12-11T10:51:32.488Z,99476.44
2023-12-11T10:56:34.277Z,99476.97
2023-12-11T11:01:36.730Z,99480.34
2023-12-11T11:06:43.732Z,99481.09
2023-12-11T11:11:53.482Z,99474.53
2023-12-11T11:16:56.881Z,99466.38
2023-12-11T11:22:27.470Z,99478.00
2023-12-11T11:27:44.072Z,99478.53
2023-12-11T11:32:53.594Z,99489.22
2023-12-11T11:37:55.149Z,99476.44
2023-12-11T11:42:56.686Z,99489.00
2023-12-11T11:47:58.485Z,99491.31
2023-12-11T11:53:07.349Z,99495.00
2023-12-11T11:58:15.938Z,99491.81
2023-12-11T12:03:17.454Z,99491.81
2023-12-11T12:08:19.027Z,99498.19
2023-12-11T12:13:20.693Z,99504.38
2023-12-11T12:18:22.243Z,99503.34
2023-12-11T12:23:23.804Z,99514.81
2023-12-11T12:28:25.690Z,99512.97
2023-12-11T12:33:27.690Z,99512.41
2023-12-11T12:38:29.477Z,99525.69
2023-12-11T12:43:31.089Z,99528.47
2023-12-11T12:48:32.678Z,99541.16
2023-12-11T12:53:34.376Z,99545.16
2023-12-11T12:58:35.972Z,99550.09
2023-12-11T13:03:37.614Z,99555.16
2023-12-11T13:08:45.131Z,99567.22
2023-12-11T13:13:56.584Z,99568.03
2023-12-11T13:18:58.287Z,99569.78
2023-12-11T13:24:01.261Z,99567.72
2023-12-11T13:29:03.016Z,99585.94
2023-12-11T13:34:04.622Z,99582.22
2023-12-11T13:39:06.137Z,99591.06
2023-12-11T13:44:07.610Z,99588.41
2023-12-11T13:49:09.143Z,99593.34
2023-12-11T13:54:10.657Z,99606.41
2023-12-11T13:59:12.169Z,99623.69
2023-12-11T14:04:14.061Z,99626.28
2023-12-11T14:09:15.608Z,99641.00
2023-12-11T14:14:17.168Z,99657.88
2023-12-11T14:19:18.780Z,99671.91
2023-12-11T14:24:20.318Z,99684.53
2023-12-11T14:29:24.436Z,99689.16
2023-12-11T14:34:26.049Z,99697.78
2023-12-11T14:39:27.601Z,99712.47
2023-12-11T14:44:29.063Z,99722.25
2023-12-11T14:49:30.760Z,99732.53
2023-12-11T14:54:32.286Z,99743.75
2023-12-11T14:59:33.768Z,99756.78
2023-12-11T15:04:35.281Z,99764.78
2023-12-11T15:09:36.764Z,99777.81
2023-12-11T15:14:38.228Z,99794.16
2023-12-11T15:19:39.807Z,99802.78
2023-12-11T15:24:41.402Z,99823.72
2023-12-11T15:29:42.939Z,99831.63
2023-12-11T15:34:44.564Z,99841.72
2023-12-11T15:39:46.138Z,99847.78
2023-12-11T15:44:47.616Z,99858.88
2023-12-11T15:49:49.521Z,99866.78
2023-12-11T15:54:51.088Z,99876.16
2023-12-11T15:59:52.535Z,99888.09
2023-12-11T16:04:54.023Z,99901.06
2023-12-11T16:09:55.643Z,99917.47
2023-12-11T16:14:57.083Z,99919.72
2023-12-11T16:19:58.508Z,99926.59
2023-12-11T16:24:59.943Z,99936.25
2023-12-11T16:30:01.527Z,99946.75
2023-12-11T16:35:03.148Z,99953.16
2023-12-11T16:40:05.792Z,99973.38
2023-12-11T16:45:09.512Z,99986.31
2023-12-11T16:50:11.254Z,99998.56
2023-12-11T16:55:12.884Z,100014.16
2023-12-11T17:00:15.152Z,100019.59
2023-12-11T17:05:16.866Z,100048.03
2023-12-11T17:10:18.486Z,100045.38
2023-12-11T17:15:20.000Z,100063.53
2023-12-11T17:20:21.480Z,100069.13
2023-12-11T17:25:23.199Z,100080.31
2023-12-11T17:30:24.678Z,100091.50
2023-12-11T17:35:26.233Z,100098.22
2023-12-11T17:40:27.710Z,100099.94
2023-12-11T17:45:29.263Z,100106.66
2023-12-11T17:50:31.036Z,100123.16
2023-12-11T17:55:32.522Z,100137.03
2023-12-11T18:00:34.003Z,100149.97
2023-12-11T18:05:35.483Z,100151.09
2023-12-11T18:10:37.110Z,100158.06
2023-12-11T18:15:38.608Z,100187.13
2023-12-11T18:20:40.058Z,100189.16
2023-12-11T18:25:41.624Z,100200.28
2023-12-11T18:30:43.353Z,100196.19
2023-12-11T18:35:44.886Z,100206.50
2023-12-11T18:40:46.462Z,100217.63
2023-12-11T18:45:47.948Z,100224.44
2023-12-11T18:50:49.396Z,100245.94
2023-12-11T19:01:11.021Z,100262.03
2023-12-11T19:06:12.611Z,100267.16
2023-12-11T19:11:15.302Z,100283.34
2023-12-11T19:16:16.787Z,100275.09
2023-12-11T19:21:18.285Z,100292.66
2023-12-11T19:26:19.787Z,100307.16
2023-12-11T19:31:21.412Z,100314.09
2023-12-11T19:36:23.198Z,100321.78
2023-12-11T19:41:24.753Z,100330.28
2023-12-11T19:46:26.380Z,100325.97
2023-12-11T19:51:27.877Z,100331.09
2023-12-11T19:56:29.345Z,100337.13
2023-12-11T20:01:32.086Z,100351.56
2023-12-11T20:06:33.637Z,100357.72
2023-12-11T20:11:35.105Z,100361.16
2023-12-11T20:16:36.609Z,100383.47
2023-12-11T20:21:39.343Z,100377.63
2023-12-11T20:26:42.121Z,100381.13
2023-12-11T20:31:43.631Z,100389.00
2023-12-11T20:36:45.135Z,100391.56
2023-12-11T20:41:46.780Z,100399.34
2023-12-11T20:46:48.292Z,100409.59
2023-12-11T20:51:49.795Z,100411.22
2023-12-11T20:56:51.256Z,100409.59
2023-12-11T21:01:52.836Z,100419.03
2023-12-11T21:06:54.382Z,100417.22
2023-12-11T21:11:55.843Z,100429.97
2023-12-11T21:16:57.305Z,100427.31
2023-12-11T21:21:58.750Z,100432.47
2023-12-11T21:27:00.307Z,100446.91
2023-12-11T21:32:01.892Z,100457.16
2023-12-11T21:37:03.475Z,100455.63
2023-12-11T21:42:05.256Z,100458.13
2023-12-11T21:47:06.969Z,100466.66
2023-12-11T21:52:08.512Z,100467.53
2023-12-11T21:57:10.019Z,100478.53
2023-12-11T22:02:11.568Z,100479.34
2023-12-11T22:07:14.854Z,100487.03
2023-12-11T22:12:17.356Z,100494.00
2023-12-11T22:17:18.771Z,100497.44
2023-12-11T22:22:20.230Z,100499.19
2023-12-11T22:27:21.714Z,100503.47
2023-12-11T22:32:23.185Z,100511.25
2023-12-11T22:37:25.230Z,100521.50
2023-12-11T22:42:26.765Z,100526.78
2023-12-11T22:47:28.439Z,100539.72
2023-12-11T22:52:30.026Z,100549.25
2023-12-11T22:57:31.671Z,100551.38
2023-12-11T23:02:33.270Z,100554.13
2023-12-11T23:07:35.262Z,100560.91
2023-12-11T23:12:36.931Z,100570.22
2023-12-11T23:17:38.483Z,100582.84
2023-12-11T23:22:39.967Z,100588.03
2023-12-11T23:27:41.543Z,100592.19
2023-12-11T23:32:43.197Z,100593.69
2023-12-11T23:37:44.791Z,100603.97
2023-12-11T23:42:46.231Z,100610.47
2023-12-11T23:47:47.808Z,100614.03
2023-12-11T23:52:49.512Z,100617.69
2023-12-11T23:57:50.972Z,100623.94
